sensor_id;sensor_type;location;lat;lon;timestamp;P1;durP1;ratioP1;P2;durP2;ratioP2
8861;SDS011;4799;50.996;4.754;2023-12-29T00:01:52;8.10;;;2.53;;
8861;SDS011;4799;50.996;4.754;2023-12-29T00:04:18;7.70;;;2.33;;
8861;SDS011;4799;50.996;4.754;2023-12-29T00:06:44;6.60;;;2.20;;
8861;SDS011;4799;50.996;4.754;2023-12-29T00:09:10;5.37;;;2.00;;
8861;SDS011;4799;50.996;4.754;2023-12-29T00:11:37;6.77;;;2.20;;
8861;SDS011;4799;50.996;4.754;2023-12-29T00:14:03;8.33;;;2.60;;
8861;SDS011;4799;50.996;4.754;2023-12-29T00:16:29;7.67;;;2.20;;
8861;SDS011;4799;50.996;4.754;2023-12-29T00:18:55;8.67;;;2.33;;
8861;SDS011;4799;50.996;4.754;2023-12-29T00:21:20;8.10;;;2.53;;
8861;SDS011;4799;50.996;4.754;2023-12-29T00:23:46;7.70;;;2.43;;
8861;SDS011;4799;50.996;4.754;2023-12-29T00:26:15;7.53;;;2.33;;
8861;SDS011;4799;50.996;4.754;2023-12-29T00:28:42;8.27;;;2.43;;
8861;SDS011;4799;50.996;4.754;2023-12-29T00:31:14;7.50;;;2.27;;
8861;SDS011;4799;50.996;4.754;2023-12-29T00:33:43;8.43;;;2.80;;
8861;SDS011;4799;50.996;4.754;2023-12-29T00:36:15;6.67;;;2.33;;
8861;SDS011;4799;50.996;4.754;2023-12-29T00:38:42;7.63;;;2.43;;
8861;SDS011;4799;50.996;4.754;2023-12-29T00:41:08;6.83;;;2.10;;
8861;SDS011;4799;50.996;4.754;2023-12-29T00:43:34;8.03;;;2.43;;
8861;SDS011;4799;50.996;4.754;2023-12-29T00:46:04;8.20;;;2.43;;
8861;SDS011;4799;50.996;4.754;2023-12-29T00:48:30;9.30;;;2.77;;
8861;SDS011;4799;50.996;4.754;2023-12-29T00:51:02;8.33;;;2.63;;
8861;SDS011;4799;50.996;4.754;2023-12-29T00:53:29;13.53;;;2.70;;
8861;SDS011;4799;50.996;4.754;2023-12-29T00:55:57;10.03;;;2.43;;
8861;SDS011;4799;50.996;4.754;2023-12-29T00:58:23;6.20;;;2.17;;
8861;SDS011;4799;50.996;4.754;2023-12-29T01:00:49;7.70;;;2.47;;
8861;SDS011;4799;50.996;4.754;2023-12-29T01:03:15;6.90;;;2.20;;
8861;SDS011;4799;50.996;4.754;2023-12-29T01:05:40;9.33;;;2.67;;
8861;SDS011;4799;50.996;4.754;2023-12-29T01:08:06;7.00;;;2.77;;
8861;SDS011;4799;50.996;4.754;2023-12-29T01:10:32;8.43;;;2.87;;
8861;SDS011;4799;50.996;4.754;2023-12-29T01:12:57;7.63;;;2.40;;
8861;SDS011;4799;50.996;4.754;2023-12-29T01:15:23;7.30;;;2.60;;
8861;SDS011;4799;50.996;4.754;2023-12-29T01:17:49;8.67;;;2.50;;
8861;SDS011;4799;50.996;4.754;2023-12-29T01:20:14;7.33;;;2.50;;
8861;SDS011;4799;50.996;4.754;2023-12-29T01:22:40;9.83;;;2.60;;
8861;SDS011;4799;50.996;4.754;2023-12-29T01:25:06;9.10;;;2.47;;
8861;SDS011;4799;50.996;4.754;2023-12-29T01:27:32;10.80;;;2.63;;
8861;SDS011;4799;50.996;4.754;2023-12-29T01:29:58;9.27;;;2.67;;
8861;SDS011;4799;50.996;4.754;2023-12-29T01:32:25;7.43;;;2.60;;
8861;SDS011;4799;50.996;4.754;2023-12-29T01:34:51;10.03;;;2.50;;
8861;SDS011;4799;50.996;4.754;2023-12-29T01:37:17;9.13;;;2.63;;
8861;SDS011;4799;50.996;4.754;2023-12-29T01:39:43;7.77;;;2.23;;
8861;SDS011;4799;50.996;4.754;2023-12-29T01:42:09;7.77;;;2.13;;
8861;SDS011;4799;50.996;4.754;2023-12-29T01:44:36;8.73;;;2.40;;
8861;SDS011;4799;50.996;4.754;2023-12-29T01:47:02;7.13;;;2.40;;
8861;SDS011;4799;50.996;4.754;2023-12-29T01:49:35;5.57;;;2.43;;
8861;SDS011;4799;50.996;4.754;2023-12-29T01:52:02;6.97;;;2.40;;
8861;SDS011;4799;50.996;4.754;2023-12-29T01:54:30;7.03;;;2.30;;
8861;SDS011;4799;50.996;4.754;2023-12-29T01:56:59;11.43;;;2.60;;
8861;SDS011;4799;50.996;4.754;2023-12-29T01:59:26;5.90;;;2.20;;
8861;SDS011;4799;50.996;4.754;2023-12-29T02:01:53;7.37;;;2.10;;
8861;SDS011;4799;50.996;4.754;2023-12-29T02:04:20;8.20;;;2.23;;
8861;SDS011;4799;50.996;4.754;2023-12-29T02:06:48;7.17;;;2.20;;
8861;SDS011;4799;50.996;4.754;2023-12-29T02:09:14;6.93;;;2.07;;
8861;SDS011;4799;50.996;4.754;2023-12-29T02:11:42;8.00;;;2.20;;
8861;SDS011;4799;50.996;4.754;2023-12-29T02:14:07;6.83;;;2.10;;
8861;SDS011;4799;50.996;4.754;2023-12-29T02:19:25;8.10;;;2.23;;
8861;SDS011;4799;50.996;4.754;2023-12-29T02:21:57;8.90;;;2.40;;
8861;SDS011;4799;50.996;4.754;2023-12-29T02:24:23;7.27;;;2.30;;
8861;SDS011;4799;50.996;4.754;2023-12-29T02:26:50;8.83;;;2.57;;
8861;SDS011;4799;50.996;4.754;2023-12-29T02:29:23;6.93;;;2.00;;
8861;SDS011;4799;50.996;4.754;2023-12-29T02:31:52;7.73;;;2.27;;
8861;SDS011;4799;50.996;4.754;2023-12-29T02:34:22;8.23;;;2.27;;
8861;SDS011;4799;50.996;4.754;2023-12-29T02:36:48;6.47;;;2.10;;
8861;SDS011;4799;50.996;4.754;2023-12-29T02:39:15;8.83;;;2.40;;
8861;SDS011;4799;50.996;4.754;2023-12-29T02:41:42;7.13;;;2.30;;
8861;SDS011;4799;50.996;4.754;2023-12-29T02:44:07;6.87;;;2.07;;
8861;SDS011;4799;50.996;4.754;2023-12-29T02:46:33;9.27;;;2.40;;
8861;SDS011;4799;50.996;4.754;2023-12-29T02:48:59;10.13;;;2.20;;
8861;SDS011;4799;50.996;4.754;2023-12-29T02:51:24;7.47;;;2.30;;
8861;SDS011;4799;50.996;4.754;2023-12-29T02:53:50;6.00;;;2.53;;
8861;SDS011;4799;50.996;4.754;2023-12-29T02:56:16;7.67;;;2.30;;
8861;SDS011;4799;50.996;4.754;2023-12-29T02:58:42;8.87;;;2.23;;
8861;SDS011;4799;50.996;4.754;2023-12-29T03:01:08;6.97;;;2.30;;
8861;SDS011;4799;50.996;4.754;2023-12-29T03:03:33;8.97;;;2.20;;
8861;SDS011;4799;50.996;4.754;2023-12-29T03:05:59;7.50;;;2.40;;
8861;SDS011;4799;50.996;4.754;2023-12-29T03:08:25;8.73;;;2.73;;
8861;SDS011;4799;50.996;4.754;2023-12-29T03:10:51;6.93;;;2.17;;
8861;SDS011;4799;50.996;4.754;2023-12-29T03:13:16;7.87;;;2.63;;
8861;SDS011;4799;50.996;4.754;2023-12-29T03:15:42;6.50;;;2.10;;
8861;SDS011;4799;50.996;4.754;2023-12-29T03:18:08;5.83;;;1.93;;
8861;SDS011;4799;50.996;4.754;2023-12-29T03:20:33;5.97;;;2.13;;
8861;SDS011;4799;50.996;4.754;2023-12-29T03:22:59;7.97;;;2.67;;
8861;SDS011;4799;50.996;4.754;2023-12-29T03:25:25;9.60;;;2.23;;
8861;SDS011;4799;50.996;4.754;2023-12-29T03:27:50;7.63;;;2.20;;
8861;SDS011;4799;50.996;4.754;2023-12-29T03:30:16;9.23;;;2.13;;
8861;SDS011;4799;50.996;4.754;2023-12-29T03:32:42;8.23;;;2.67;;
8861;SDS011;4799;50.996;4.754;2023-12-29T03:35:07;8.43;;;2.43;;
8861;SDS011;4799;50.996;4.754;2023-12-29T03:37:33;7.77;;;2.63;;
8861;SDS011;4799;50.996;4.754;2023-12-29T03:39:59;9.13;;;2.67;;
8861;SDS011;4799;50.996;4.754;2023-12-29T03:42:24;9.23;;;2.80;;
8861;SDS011;4799;50.996;4.754;2023-12-29T03:44:50;8.80;;;2.23;;
8861;SDS011;4799;50.996;4.754;2023-12-29T03:47:16;8.47;;;2.47;;
8861;SDS011;4799;50.996;4.754;2023-12-29T03:49:41;7.53;;;2.50;;
8861;SDS011;4799;50.996;4.754;2023-12-29T03:52:07;11.03;;;2.80;;
8861;SDS011;4799;50.996;4.754;2023-12-29T03:54:33;6.10;;;2.40;;
8861;SDS011;4799;50.996;4.754;2023-12-29T03:56:59;8.73;;;2.60;;
8861;SDS011;4799;50.996;4.754;2023-12-29T03:59:24;6.47;;;2.50;;
8861;SDS011;4799;50.996;4.754;2023-12-29T04:01:50;9.07;;;2.50;;
8861;SDS011;4799;50.996;4.754;2023-12-29T04:04:16;8.50;;;2.60;;
8861;SDS011;4799;50.996;4.754;2023-12-29T04:06:41;8.23;;;2.53;;
8861;SDS011;4799;50.996;4.754;2023-12-29T04:09:07;9.87;;;2.60;;
8861;SDS011;4799;50.996;4.754;2023-12-29T04:11:33;9.30;;;2.77;;
8861;SDS011;4799;50.996;4.754;2023-12-29T04:13:58;7.20;;;2.40;;
8861;SDS011;4799;50.996;4.754;2023-12-29T04:16:24;9.17;;;2.77;;
8861;SDS011;4799;50.996;4.754;2023-12-29T04:18:50;9.37;;;2.13;;
8861;SDS011;4799;50.996;4.754;2023-12-29T04:21:15;8.40;;;2.40;;
8861;SDS011;4799;50.996;4.754;2023-12-29T04:23:41;11.17;;;2.57;;
8861;SDS011;4799;50.996;4.754;2023-12-29T04:26:07;10.33;;;2.40;;
8861;SDS011;4799;50.996;4.754;2023-12-29T04:28:33;8.00;;;2.47;;
8861;SDS011;4799;50.996;4.754;2023-12-29T04:30:59;10.23;;;2.37;;
8861;SDS011;4799;50.996;4.754;2023-12-29T04:33:24;7.47;;;2.37;;
8861;SDS011;4799;50.996;4.754;2023-12-29T04:35:51;7.57;;;2.20;;
8861;SDS011;4799;50.996;4.754;2023-12-29T04:38:17;9.10;;;2.50;;
8861;SDS011;4799;50.996;4.754;2023-12-29T04:40:45;10.47;;;2.77;;
8861;SDS011;4799;50.996;4.754;2023-12-29T04:43:12;8.77;;;2.40;;
8861;SDS011;4799;50.996;4.754;2023-12-29T04:45:38;9.37;;;2.43;;
8861;SDS011;4799;50.996;4.754;2023-12-29T04:48:03;8.80;;;2.33;;
8861;SDS011;4799;50.996;4.754;2023-12-29T04:50:29;8.77;;;2.50;;
8861;SDS011;4799;50.996;4.754;2023-12-29T04:52:55;9.83;;;2.33;;
8861;SDS011;4799;50.996;4.754;2023-12-29T04:55:21;9.90;;;2.47;;
8861;SDS011;4799;50.996;4.754;2023-12-29T04:57:47;9.77;;;2.43;;
8861;SDS011;4799;50.996;4.754;2023-12-29T05:00:12;8.13;;;2.40;;
8861;SDS011;4799;50.996;4.754;2023-12-29T05:02:38;9.37;;;2.50;;
8861;SDS011;4799;50.996;4.754;2023-12-29T05:05:04;7.93;;;2.57;;
8861;SDS011;4799;50.996;4.754;2023-12-29T05:07:31;10.10;;;2.27;;
8861;SDS011;4799;50.996;4.754;2023-12-29T05:09:56;6.97;;;2.30;;
8861;SDS011;4799;50.996;4.754;2023-12-29T05:12:22;9.30;;;2.83;;
8861;SDS011;4799;50.996;4.754;2023-12-29T05:14:48;9.53;;;2.67;;
8861;SDS011;4799;50.996;4.754;2023-12-29T05:17:13;8.10;;;2.27;;
8861;SDS011;4799;50.996;4.754;2023-12-29T05:19:39;7.53;;;2.20;;
8861;SDS011;4799;50.996;4.754;2023-12-29T05:22:05;9.50;;;2.60;;
8861;SDS011;4799;50.996;4.754;2023-12-29T05:24:31;8.73;;;2.30;;
8861;SDS011;4799;50.996;4.754;2023-12-29T05:26:56;8.23;;;2.40;;
8861;SDS011;4799;50.996;4.754;2023-12-29T05:29:23;7.80;;;2.50;;
8861;SDS011;4799;50.996;4.754;2023-12-29T05:31:48;8.40;;;2.30;;
8861;SDS011;4799;50.996;4.754;2023-12-29T05:34:14;7.90;;;2.47;;
8861;SDS011;4799;50.996;4.754;2023-12-29T05:36:40;7.73;;;2.20;;
8861;SDS011;4799;50.996;4.754;2023-12-29T05:39:07;6.27;;;1.93;;
8861;SDS011;4799;50.996;4.754;2023-12-29T05:41:33;8.00;;;2.73;;
8861;SDS011;4799;50.996;4.754;2023-12-29T05:43:58;8.73;;;2.30;;
8861;SDS011;4799;50.996;4.754;2023-12-29T05:46:25;8.63;;;2.37;;
8861;SDS011;4799;50.996;4.754;2023-12-29T05:48:51;6.07;;;2.17;;
8861;SDS011;4799;50.996;4.754;2023-12-29T05:51:17;6.50;;;2.20;;
8861;SDS011;4799;50.996;4.754;2023-12-29T05:53:43;6.87;;;2.17;;
8861;SDS011;4799;50.996;4.754;2023-12-29T05:56:11;7.97;;;2.50;;
8861;SDS011;4799;50.996;4.754;2023-12-29T05:58:38;8.80;;;2.97;;
8861;SDS011;4799;50.996;4.754;2023-12-29T06:01:06;9.20;;;2.43;;
8861;SDS011;4799;50.996;4.754;2023-12-29T06:03:32;6.87;;;2.40;;
8861;SDS011;4799;50.996;4.754;2023-12-29T06:05:58;7.10;;;2.13;;
8861;SDS011;4799;50.996;4.754;2023-12-29T06:08:24;7.83;;;2.47;;
8861;SDS011;4799;50.996;4.754;2023-12-29T06:10:49;7.80;;;2.10;;
8861;SDS011;4799;50.996;4.754;2023-12-29T06:13:15;7.47;;;2.43;;
8861;SDS011;4799;50.996;4.754;2023-12-29T06:15:41;10.07;;;2.63;;
8861;SDS011;4799;50.996;4.754;2023-12-29T06:18:07;7.80;;;2.70;;
8861;SDS011;4799;50.996;4.754;2023-12-29T06:20:33;9.47;;;2.30;;
8861;SDS011;4799;50.996;4.754;2023-12-29T06:22:58;7.43;;;2.40;;
8861;SDS011;4799;50.996;4.754;2023-12-29T06:25:24;7.27;;;2.37;;
8861;SDS011;4799;50.996;4.754;2023-12-29T06:27:50;10.40;;;2.60;;
8861;SDS011;4799;50.996;4.754;2023-12-29T06:30:16;7.40;;;2.20;;
8861;SDS011;4799;50.996;4.754;2023-12-29T06:32:42;10.20;;;2.60;;
8861;SDS011;4799;50.996;4.754;2023-12-29T06:35:08;10.13;;;2.40;;
8861;SDS011;4799;50.996;4.754;2023-12-29T06:37:37;10.83;;;2.50;;
8861;SDS011;4799;50.996;4.754;2023-12-29T06:40:04;6.43;;;2.10;;
8861;SDS011;4799;50.996;4.754;2023-12-29T06:42:31;10.20;;;2.53;;
8861;SDS011;4799;50.996;4.754;2023-12-29T06:44:57;6.77;;;2.17;;
8861;SDS011;4799;50.996;4.754;2023-12-29T06:47:23;4.97;;;2.10;;
8861;SDS011;4799;50.996;4.754;2023-12-29T06:49:48;5.83;;;2.27;;
8861;SDS011;4799;50.996;4.754;2023-12-29T06:52:15;11.60;;;2.87;;
8861;SDS011;4799;50.996;4.754;2023-12-29T06:54:41;6.17;;;1.93;;
8861;SDS011;4799;50.996;4.754;2023-12-29T06:57:07;7.00;;;2.13;;
8861;SDS011;4799;50.996;4.754;2023-12-29T06:59:32;4.90;;;1.90;;
8861;SDS011;4799;50.996;4.754;2023-12-29T07:01:58;7.60;;;2.03;;
8861;SDS011;4799;50.996;4.754;2023-12-29T07:04:24;7.43;;;2.47;;
8861;SDS011;4799;50.996;4.754;2023-12-29T07:06:50;6.07;;;1.90;;
8861;SDS011;4799;50.996;4.754;2023-12-29T07:09:15;7.70;;;2.53;;
8861;SDS011;4799;50.996;4.754;2023-12-29T07:11:41;5.30;;;2.10;;
8861;SDS011;4799;50.996;4.754;2023-12-29T07:14:07;7.37;;;2.17;;
8861;SDS011;4799;50.996;4.754;2023-12-29T07:16:33;5.50;;;1.80;;
8861;SDS011;4799;50.996;4.754;2023-12-29T07:18:58;4.27;;;2.00;;
8861;SDS011;4799;50.996;4.754;2023-12-29T07:21:24;6.40;;;2.23;;
8861;SDS011;4799;50.996;4.754;2023-12-29T07:23:50;9.10;;;2.43;;
8861;SDS011;4799;50.996;4.754;2023-12-29T07:26:15;7.07;;;2.23;;
8861;SDS011;4799;50.996;4.754;2023-12-29T07:28:41;5.63;;;2.13;;
8861;SDS011;4799;50.996;4.754;2023-12-29T07:31:07;7.93;;;2.60;;
8861;SDS011;4799;50.996;4.754;2023-12-29T07:33:33;6.30;;;2.23;;
8861;SDS011;4799;50.996;4.754;2023-12-29T07:35:59;5.90;;;1.87;;
8861;SDS011;4799;50.996;4.754;2023-12-29T07:38:25;6.73;;;2.10;;
8861;SDS011;4799;50.996;4.754;2023-12-29T07:40:51;4.63;;;1.77;;
8861;SDS011;4799;50.996;4.754;2023-12-29T07:43:16;4.57;;;1.80;;
8861;SDS011;4799;50.996;4.754;2023-12-29T07:45:42;5.93;;;1.80;;
8861;SDS011;4799;50.996;4.754;2023-12-29T07:48:10;4.80;;;1.63;;
8861;SDS011;4799;50.996;4.754;2023-12-29T07:50:36;3.57;;;1.57;;
8861;SDS011;4799;50.996;4.754;2023-12-29T07:53:02;4.03;;;1.90;;
8861;SDS011;4799;50.996;4.754;2023-12-29T07:55:29;6.63;;;1.40;;
8861;SDS011;4799;50.996;4.754;2023-12-29T07:57:55;4.40;;;1.47;;
8861;SDS011;4799;50.996;4.754;2023-12-29T08:00:21;4.80;;;1.63;;
8861;SDS011;4799;50.996;4.754;2023-12-29T08:02:48;4.07;;;1.50;;
8861;SDS011;4799;50.996;4.754;2023-12-29T08:05:14;7.13;;;2.10;;
8861;SDS011;4799;50.996;4.754;2023-12-29T08:07:40;4.70;;;1.70;;
8861;SDS011;4799;50.996;4.754;2023-12-29T08:10:06;5.43;;;1.70;;
8861;SDS011;4799;50.996;4.754;2023-12-29T08:12:33;7.00;;;1.80;;
8861;SDS011;4799;50.996;4.754;2023-12-29T08:14:59;8.17;;;2.13;;
8861;SDS011;4799;50.996;4.754;2023-12-29T08:17:25;4.90;;;1.83;;
8861;SDS011;4799;50.996;4.754;2023-12-29T08:19:52;6.20;;;2.07;;
8861;SDS011;4799;50.996;4.754;2023-12-29T08:22:19;5.83;;;1.97;;
8861;SDS011;4799;50.996;4.754;2023-12-29T08:24:44;6.47;;;2.47;;
8861;SDS011;4799;50.996;4.754;2023-12-29T08:27:13;5.90;;;2.10;;
8861;SDS011;4799;50.996;4.754;2023-12-29T08:29:39;9.17;;;2.20;;
8861;SDS011;4799;50.996;4.754;2023-12-29T08:32:05;6.03;;;1.93;;
8861;SDS011;4799;50.996;4.754;2023-12-29T08:34:32;9.60;;;2.30;;
8861;SDS011;4799;50.996;4.754;2023-12-29T08:36:59;5.53;;;1.93;;
8861;SDS011;4799;50.996;4.754;2023-12-29T08:39:25;6.47;;;2.00;;
8861;SDS011;4799;50.996;4.754;2023-12-29T08:41:51;8.80;;;2.43;;
8861;SDS011;4799;50.996;4.754;2023-12-29T08:44:16;7.17;;;2.30;;
8861;SDS011;4799;50.996;4.754;2023-12-29T08:46:42;7.67;;;2.60;;
8861;SDS011;4799;50.996;4.754;2023-12-29T08:49:08;5.53;;;2.00;;
8861;SDS011;4799;50.996;4.754;2023-12-29T08:51:34;8.57;;;2.20;;
8861;SDS011;4799;50.996;4.754;2023-12-29T08:53:59;7.40;;;2.07;;
8861;SDS011;4799;50.996;4.754;2023-12-29T08:56:25;7.83;;;2.40;;
8861;SDS011;4799;50.996;4.754;2023-12-29T08:58:51;8.30;;;2.20;;
8861;SDS011;4799;50.996;4.754;2023-12-29T09:01:17;9.83;;;2.47;;
8861;SDS011;4799;50.996;4.754;2023-12-29T09:03:44;5.00;;;1.60;;
8861;SDS011;4799;50.996;4.754;2023-12-29T09:06:10;5.30;;;1.60;;
8861;SDS011;4799;50.996;4.754;2023-12-29T09:08:36;4.33;;;1.50;;
8861;SDS011;4799;50.996;4.754;2023-12-29T09:11:02;4.93;;;1.50;;
8861;SDS011;4799;50.996;4.754;2023-12-29T09:13:29;2.23;;;0.90;;
8861;SDS011;4799;50.996;4.754;2023-12-29T09:15:54;2.57;;;1.10;;
8861;SDS011;4799;50.996;4.754;2023-12-29T09:18:21;2.37;;;1.10;;
8861;SDS011;4799;50.996;4.754;2023-12-29T09:20:46;1.93;;;1.10;;
8861;SDS011;4799;50.996;4.754;2023-12-29T09:23:12;3.87;;;1.80;;
8861;SDS011;4799;50.996;4.754;2023-12-29T09:25:38;6.57;;;1.97;;
8861;SDS011;4799;50.996;4.754;2023-12-29T09:28:05;5.70;;;2.37;;
8861;SDS011;4799;50.996;4.754;2023-12-29T09:30:31;9.67;;;3.00;;
8861;SDS011;4799;50.996;4.754;2023-12-29T09:32:56;11.60;;;2.60;;
8861;SDS011;4799;50.996;4.754;2023-12-29T09:35:22;9.70;;;2.27;;
8861;SDS011;4799;50.996;4.754;2023-12-29T09:37:48;8.30;;;2.67;;
8861;SDS011;4799;50.996;4.754;2023-12-29T09:40:14;9.33;;;2.70;;
8861;SDS011;4799;50.996;4.754;2023-12-29T09:42:40;7.50;;;2.90;;
8861;SDS011;4799;50.996;4.754;2023-12-29T09:45:11;9.60;;;2.60;;
8861;SDS011;4799;50.996;4.754;2023-12-29T09:47:38;10.50;;;2.80;;
8861;SDS011;4799;50.996;4.754;2023-12-29T09:50:12;6.77;;;2.07;;
8861;SDS011;4799;50.996;4.754;2023-12-29T09:52:39;7.93;;;2.00;;
8861;SDS011;4799;50.996;4.754;2023-12-29T09:55:07;5.43;;;1.80;;
8861;SDS011;4799;50.996;4.754;2023-12-29T09:57:37;5.90;;;1.80;;
8861;SDS011;4799;50.996;4.754;2023-12-29T10:00:03;7.10;;;1.90;;
8861;SDS011;4799;50.996;4.754;2023-12-29T10:02:30;3.37;;;1.30;;
8861;SDS011;4799;50.996;4.754;2023-12-29T10:04:56;3.23;;;1.30;;
8861;SDS011;4799;50.996;4.754;2023-12-29T10:07:25;3.77;;;1.37;;
8861;SDS011;4799;50.996;4.754;2023-12-29T10:09:55;3.43;;;1.37;;
8861;SDS011;4799;50.996;4.754;2023-12-29T10:12:22;4.13;;;1.60;;
8861;SDS011;4799;50.996;4.754;2023-12-29T10:14:57;4.40;;;1.53;;
8861;SDS011;4799;50.996;4.754;2023-12-29T10:23:06;3.93;;;1.57;;
8861;SDS011;4799;50.996;4.754;2023-12-29T10:25:38;6.90;;;2.20;;
8861;SDS011;4799;50.996;4.754;2023-12-29T10:28:05;5.13;;;2.10;;
8861;SDS011;4799;50.996;4.754;2023-12-29T10:30:31;7.47;;;2.40;;
8861;SDS011;4799;50.996;4.754;2023-12-29T10:32:57;7.80;;;2.80;;
8861;SDS011;4799;50.996;4.754;2023-12-29T10:35:25;5.97;;;2.60;;
8861;SDS011;4799;50.996;4.754;2023-12-29T10:37:51;6.40;;;2.80;;
8861;SDS011;4799;50.996;4.754;2023-12-29T10:40:18;7.53;;;2.60;;
8861;SDS011;4799;50.996;4.754;2023-12-29T10:42:56;6.70;;;2.70;;
8861;SDS011;4799;50.996;4.754;2023-12-29T10:45:30;6.27;;;2.33;;
8861;SDS011;4799;50.996;4.754;2023-12-29T10:47:55;6.17;;;2.50;;
8861;SDS011;4799;50.996;4.754;2023-12-29T10:50:21;7.87;;;2.80;;
8861;SDS011;4799;50.996;4.754;2023-12-29T10:52:47;9.57;;;3.20;;
8861;SDS011;4799;50.996;4.754;2023-12-29T10:55:13;10.70;;;3.03;;
8861;SDS011;4799;50.996;4.754;2023-12-29T10:57:39;7.53;;;2.80;;
8861;SDS011;4799;50.996;4.754;2023-12-29T11:00:06;9.63;;;2.53;;
8861;SDS011;4799;50.996;4.754;2023-12-29T11:02:37;9.03;;;2.80;;
8861;SDS011;4799;50.996;4.754;2023-12-29T11:05:04;9.90;;;2.93;;
8861;SDS011;4799;50.996;4.754;2023-12-29T11:07:33;8.10;;;2.50;;
8861;SDS011;4799;50.996;4.754;2023-12-29T11:10:07;9.53;;;2.77;;
8861;SDS011;4799;50.996;4.754;2023-12-29T11:12:34;8.63;;;2.60;;
8861;SDS011;4799;50.996;4.754;2023-12-29T11:15:02;7.67;;;2.33;;
8861;SDS011;4799;50.996;4.754;2023-12-29T11:17:34;6.93;;;2.27;;
8861;SDS011;4799;50.996;4.754;2023-12-29T11:20:01;8.73;;;2.50;;
8861;SDS011;4799;50.996;4.754;2023-12-29T11:22:28;5.83;;;2.30;;
8861;SDS011;4799;50.996;4.754;2023-12-29T11:24:56;7.60;;;2.23;;
8861;SDS011;4799;50.996;4.754;2023-12-29T11:27:25;7.93;;;2.90;;
8861;SDS011;4799;50.996;4.754;2023-12-29T11:29:53;6.90;;;2.13;;
8861;SDS011;4799;50.996;4.754;2023-12-29T11:32:21;8.40;;;2.50;;
8861;SDS011;4799;50.996;4.754;2023-12-29T11:38:04;8.77;;;2.60;;
8861;SDS011;4799;50.996;4.754;2023-12-29T11:40:41;9.43;;;2.50;;
8861;SDS011;4799;50.996;4.754;2023-12-29T11:43:15;5.50;;;2.27;;
8861;SDS011;4799;50.996;4.754;2023-12-29T11:45:42;7.97;;;2.30;;
8861;SDS011;4799;50.996;4.754;2023-12-29T11:48:09;7.00;;;2.20;;
8861;SDS011;4799;50.996;4.754;2023-12-29T11:50:37;7.70;;;2.30;;
8861;SDS011;4799;50.996;4.754;2023-12-29T11:53:05;10.50;;;2.90;;
8861;SDS011;4799;50.996;4.754;2023-12-29T11:55:39;6.97;;;2.20;;
8861;SDS011;4799;50.996;4.754;2023-12-29T11:58:22;7.60;;;2.30;;
8861;SDS011;4799;50.996;4.754;2023-12-29T12:00:51;8.07;;;2.00;;
8861;SDS011;4799;50.996;4.754;2023-12-29T12:03:24;6.77;;;2.30;;
8861;SDS011;4799;50.996;4.754;2023-12-29T12:05:51;8.00;;;2.60;;
8861;SDS011;4799;50.996;4.754;2023-12-29T12:08:32;7.23;;;2.20;;
8861;SDS011;4799;50.996;4.754;2023-12-29T12:13:53;6.17;;;1.90;;
8861;SDS011;4799;50.996;4.754;2023-12-29T12:19:08;6.83;;;2.23;;
8861;SDS011;4799;50.996;4.754;2023-12-29T12:21:34;6.60;;;2.17;;
8861;SDS011;4799;50.996;4.754;2023-12-29T12:24:03;5.90;;;2.20;;
8861;SDS011;4799;50.996;4.754;2023-12-29T12:26:33;4.57;;;1.80;;
8861;SDS011;4799;50.996;4.754;2023-12-29T12:29:02;6.10;;;1.87;;
8861;SDS011;4799;50.996;4.754;2023-12-29T12:31:29;6.87;;;2.23;;
8861;SDS011;4799;50.996;4.754;2023-12-29T12:33:55;8.17;;;1.87;;
8861;SDS011;4799;50.996;4.754;2023-12-29T12:36:22;4.43;;;1.60;;
8861;SDS011;4799;50.996;4.754;2023-12-29T12:38:55;6.33;;;2.07;;
8861;SDS011;4799;50.996;4.754;2023-12-29T12:41:21;5.43;;;2.60;;
8861;SDS011;4799;50.996;4.754;2023-12-29T12:44:33;6.53;;;1.90;;
8861;SDS011;4799;50.996;4.754;2023-12-29T12:49:12;7.43;;;2.20;;
8861;SDS011;4799;50.996;4.754;2023-12-29T12:51:39;13.97;;;2.10;;
8861;SDS011;4799;50.996;4.754;2023-12-29T12:54:05;3.83;;;1.60;;
8861;SDS011;4799;50.996;4.754;2023-12-29T12:56:32;4.20;;;1.40;;
8861;SDS011;4799;50.996;4.754;2023-12-29T12:59:00;2.20;;;1.10;;
8861;SDS011;4799;50.996;4.754;2023-12-29T13:01:27;1.93;;;1.00;;
8861;SDS011;4799;50.996;4.754;2023-12-29T13:03:54;2.13;;;1.13;;
8861;SDS011;4799;50.996;4.754;2023-12-29T13:06:23;2.20;;;1.10;;
8861;SDS011;4799;50.996;4.754;2023-12-29T13:08:50;1.60;;;0.80;;
8861;SDS011;4799;50.996;4.754;2023-12-29T13:11:20;2.30;;;1.10;;
8861;SDS011;4799;50.996;4.754;2023-12-29T13:13:52;1.57;;;1.00;;
8861;SDS011;4799;50.996;4.754;2023-12-29T13:16:44;1.90;;;1.10;;
8861;SDS011;4799;50.996;4.754;2023-12-29T13:19:22;2.60;;;1.53;;
8861;SDS011;4799;50.996;4.754;2023-12-29T13:21:55;2.17;;;1.23;;
8861;SDS011;4799;50.996;4.754;2023-12-29T13:24:21;2.43;;;1.30;;
8861;SDS011;4799;50.996;4.754;2023-12-29T13:26:50;2.50;;;1.27;;
8861;SDS011;4799;50.996;4.754;2023-12-29T13:29:18;3.13;;;1.40;;
8861;SDS011;4799;50.996;4.754;2023-12-29T13:31:46;2.20;;;1.17;;
8861;SDS011;4799;50.996;4.754;2023-12-29T13:35:01;3.63;;;1.20;;
8861;SDS011;4799;50.996;4.754;2023-12-29T13:37:35;3.20;;;1.40;;
8861;SDS011;4799;50.996;4.754;2023-12-29T13:42:48;3.73;;;1.87;;
8861;SDS011;4799;50.996;4.754;2023-12-29T13:45:19;3.77;;;1.70;;
8861;SDS011;4799;50.996;4.754;2023-12-29T13:47:46;3.83;;;1.60;;
8861;SDS011;4799;50.996;4.754;2023-12-29T13:50:12;3.03;;;1.60;;
8861;SDS011;4799;50.996;4.754;2023-12-29T13:52:37;6.10;;;2.00;;
8861;SDS011;4799;50.996;4.754;2023-12-29T13:55:04;4.13;;;1.77;;
8861;SDS011;4799;50.996;4.754;2023-12-29T13:57:31;5.37;;;1.87;;
8861;SDS011;4799;50.996;4.754;2023-12-29T14:03:01;4.50;;;1.60;;
8861;SDS011;4799;50.996;4.754;2023-12-29T14:05:43;4.03;;;1.80;;
8861;SDS011;4799;50.996;4.754;2023-12-29T14:08:39;3.50;;;1.53;;
8861;SDS011;4799;50.996;4.754;2023-12-29T14:11:07;4.40;;;1.57;;
8861;SDS011;4799;50.996;4.754;2023-12-29T14:13:34;4.43;;;1.50;;
8861;SDS011;4799;50.996;4.754;2023-12-29T14:16:00;4.77;;;2.07;;
8861;SDS011;4799;50.996;4.754;2023-12-29T14:26:26;5.93;;;1.67;;
8861;SDS011;4799;50.996;4.754;2023-12-29T14:29:01;4.93;;;2.00;;
8861;SDS011;4799;50.996;4.754;2023-12-29T14:31:31;3.63;;;1.60;;
8861;SDS011;4799;50.996;4.754;2023-12-29T14:34:00;4.73;;;1.70;;
8861;SDS011;4799;50.996;4.754;2023-12-29T14:36:26;4.67;;;1.90;;
8861;SDS011;4799;50.996;4.754;2023-12-29T14:38:52;4.47;;;1.80;;
8861;SDS011;4799;50.996;4.754;2023-12-29T14:41:18;2.97;;;1.80;;
8861;SDS011;4799;50.996;4.754;2023-12-29T14:43:43;4.33;;;1.90;;
8861;SDS011;4799;50.996;4.754;2023-12-29T14:46:09;3.60;;;1.57;;
8861;SDS011;4799;50.996;4.754;2023-12-29T14:48:35;4.83;;;1.70;;
8861;SDS011;4799;50.996;4.754;2023-12-29T14:51:01;6.63;;;1.80;;
8861;SDS011;4799;50.996;4.754;2023-12-29T14:53:28;7.27;;;2.20;;
8861;SDS011;4799;50.996;4.754;2023-12-29T14:55:53;7.27;;;2.17;;
8861;SDS011;4799;50.996;4.754;2023-12-29T14:58:19;4.78;;;2.45;;
8861;SDS011;4799;50.996;4.754;2023-12-29T15:00:45;4.90;;;2.00;;
8861;SDS011;4799;50.996;4.754;2023-12-29T15:03:14;5.10;;;2.10;;
8861;SDS011;4799;50.996;4.754;2023-12-29T15:05:43;4.73;;;1.90;;
8861;SDS011;4799;50.996;4.754;2023-12-29T15:08:09;4.27;;;1.80;;
8861;SDS011;4799;50.996;4.754;2023-12-29T15:10:35;3.87;;;2.10;;
8861;SDS011;4799;50.996;4.754;2023-12-29T15:13:01;3.53;;;1.83;;
8861;SDS011;4799;50.996;4.754;2023-12-29T15:15:27;3.77;;;1.73;;
8861;SDS011;4799;50.996;4.754;2023-12-29T15:17:52;4.57;;;1.90;;
8861;SDS011;4799;50.996;4.754;2023-12-29T15:20:18;3.43;;;1.47;;
8861;SDS011;4799;50.996;4.754;2023-12-29T15:22:44;3.20;;;1.77;;
8861;SDS011;4799;50.996;4.754;2023-12-29T15:25:10;3.40;;;1.80;;
8861;SDS011;4799;50.996;4.754;2023-12-29T15:27:36;4.03;;;1.80;;
8861;SDS011;4799;50.996;4.754;2023-12-29T15:30:02;5.67;;;1.90;;
8861;SDS011;4799;50.996;4.754;2023-12-29T15:32:28;4.77;;;1.90;;
8861;SDS011;4799;50.996;4.754;2023-12-29T15:34:54;3.83;;;1.70;;
8861;SDS011;4799;50.996;4.754;2023-12-29T15:37:19;3.43;;;1.40;;
8861;SDS011;4799;50.996;4.754;2023-12-29T15:39:45;4.23;;;1.90;;
8861;SDS011;4799;50.996;4.754;2023-12-29T15:42:11;2.53;;;1.80;;
8861;SDS011;4799;50.996;4.754;2023-12-29T15:44:36;3.27;;;1.83;;
8861;SDS011;4799;50.996;4.754;2023-12-29T15:47:02;5.80;;;2.07;;
8861;SDS011;4799;50.996;4.754;2023-12-29T15:49:28;5.63;;;2.40;;